Time;durP1;ratioP1;P1;durP2;ratioP2;P2;SDS_P1;SDS_P2;PMS_P1;PMS_P2;Temp;Humidity;BMP_temperature;BMP_pressure;BME280_temperature;BME280_humidity;BME280_pressure;Samples;Min_cycle;Max_cycle;Signal;HPM_P1;HPM_P2
2022/07/13 00:02:05;;;;;;;1.80;0.93;;;;;;;15.51;51.38;98752.97;5091544;28;20016;-78
2022/07/13 00:04:30;;;;;;;2.42;1.00;;;;;;;15.47;51.40;98750.84;5092277;28;20050;-79
2022/07/13 00:06:55;;;;;;;3.17;0.90;;;;;;;15.46;51.94;98748.41;5073384;28;20487;-79
2022/07/13 00:09:21;;;;;;;1.77;0.90;;;;;;;15.43;51.98;98755.38;5091804;28;20115;-79
2022/07/13 00:11:46;;;;;;;1.88;0.90;;;;;;;15.43;52.29;98757.34;5091684;28;20028;-78
2022/07/13 00:14:12;;;;;;;1.08;0.90;;;;;;;15.40;51.74;98752.47;5092127;28;20380;-78
2022/07/13 00:16:37;;;;;;;1.60;0.90;;;;;;;15.39;52.31;98751.63;5092636;28;20530;-79
2022/07/13 00:19:03;;;;;;;3.15;0.85;;;;;;;15.35;51.90;98745.13;5092942;28;20043;-76
2022/07/13 00:21:28;;;;;;;1.15;0.88;;;;;;;15.33;52.26;98752.91;5091569;28;20051;-76
2022/07/13 00:23:53;;;;;;;0.95;0.80;;;;;;;15.31;52.33;98750.47;5091353;28;20028;-77
2022/07/13 00:26:19;;;;;;;1.10;0.93;;;;;;;15.29;52.60;98749.97;5091483;28;20028;-76
2022/07/13 00:28:44;;;;;;;3.58;1.02;;;;;;;15.30;52.38;98756.31;5091371;28;20403;-77
2022/07/13 00:31:10;;;;;;;1.35;0.90;;;;;;;15.27;52.43;98746.72;5090934;28;20099;-76
2022/07/13 00:33:35;;;;;;;1.30;0.90;;;;;;;15.26;52.44;98749.81;5091011;28;20416;-77
2022/07/13 00:36:01;;;;;;;1.58;1.00;;;;;;;15.24;52.74;98741.84;5090703;28;20035;-76
2022/07/13 00:38:26;;;;;;;1.75;0.90;;;;;;;15.23;52.94;98742.16;5091060;28;20036;-75
2022/07/13 00:40:51;;;;;;;2.60;0.98;;;;;;;15.19;52.67;98744.75;5091198;28;20104;-75
2022/07/13 00:43:17;;;;;;;1.40;0.88;;;;;;;15.17;52.72;98747.00;5090880;28;20020;-75
2022/07/13 00:45:43;;;;;;;2.30;1.00;;;;;;;15.16;53.03;98745.38;5090869;28;20034;-76
2022/07/13 00:48:10;;;;;;;2.50;0.90;;;;;;;15.13;53.60;98751.53;5090825;28;20031;-76
2022/07/13 00:50:35;;;;;;;2.42;1.20;;;;;;;15.09;53.58;98748.63;5090806;28;20028;-75
2022/07/13 00:53:01;;;;;;;1.13;0.75;;;;;;;15.07;53.57;98753.66;5090466;28;20383;-75
2022/07/13 00:55:27;;;;;;;2.45;0.90;;;;;;;15.04;53.24;98748.75;5090887;28;20095;-75
2022/07/13 00:57:52;;;;;;;1.15;1.05;;;;;;;15.02;53.36;98754.63;5090600;28;20482;-75
2022/07/13 01:00:18;;;;;;;1.85;1.00;;;;;;;14.99;53.44;98754.41;5090429;28;20052;-75
2022/07/13 01:02:46;;;;;;;1.75;1.13;;;;;;;14.97;54.20;98753.91;5090710;28;20388;-75
2022/07/13 01:05:14;;;;;;;1.25;0.90;;;;;;;14.93;54.50;98752.94;5087292;28;20031;-75
2022/07/13 01:07:40;;;;;;;1.70;1.10;;;;;;;14.88;53.71;98751.13;5088809;28;20051;-75
2022/07/13 01:10:09;;;;;;;1.20;0.85;;;;;;;14.84;53.92;98752.91;5090838;28;20468;-75
2022/07/13 01:12:36;;;;;;;2.78;1.02;;;;;;;14.82;54.37;98755.16;5089693;28;20024;-75
2022/07/13 01:15:03;;;;;;;1.88;1.17;;;;;;;14.80;54.69;98760.19;5089775;28;20062;-75
2022/07/13 01:17:31;;;;;;;3.30;1.05;;;;;;;14.75;54.13;98763.91;5088849;28;20089;-75
2022/07/13 01:19:58;;;;;;;1.77;0.90;;;;;;;14.73;54.76;98761.44;5090200;28;20070;-74
2022/07/13 01:22:33;;;;;;;3.58;1.10;;;;;;;14.67;55.02;98759.09;5087344;28;20020;-76
2022/07/13 01:24:58;;;;;;;1.30;0.95;;;;;;;14.66;54.77;98766.59;5089667;28;20024;-75
2022/07/13 01:27:24;;;;;;;3.03;1.10;;;;;;;14.63;54.53;98758.09;5089874;28;20016;-75
2022/07/13 01:29:50;;;;;;;2.88;1.05;;;;;;;14.61;54.64;98761.19;5089961;28;20095;-75
2022/07/13 01:32:16;;;;;;;1.33;1.00;;;;;;;14.57;54.93;98757.44;5089521;28;20472;-75
2022/07/13 01:34:41;;;;;;;1.65;1.10;;;;;;;14.57;55.69;98762.97;5090020;28;20020;-75
2022/07/13 01:37:06;;;;;;;2.63;1.00;;;;;;;14.53;55.14;98767.47;5089768;28;20031;-76
2022/07/13 01:39:32;;;;;;;4.80;1.10;;;;;;;14.49;55.38;98758.19;5090074;28;20039;-76
2022/07/13 01:41:57;;;;;;;3.05;1.20;;;;;;;14.47;55.09;98768.72;5088765;28;20481;-75
2022/07/13 01:44:23;;;;;;;2.45;1.02;;;;;;;14.43;55.19;98760.28;5090051;28;20376;-75
2022/07/13 01:46:48;;;;;;;2.00;1.17;;;;;;;14.39;55.63;98754.56;5089339;28;20107;-74
2022/07/13 01:49:14;;;;;;;2.72;0.90;;;;;;;14.37;55.76;98764.28;5071362;28;20071;-75
2022/07/13 01:51:40;;;;;;;2.30;1.00;;;;;;;14.37;55.59;98769.81;5089474;28;20468;-74
2022/07/13 01:54:05;;;;;;;3.05;1.20;;;;;;;14.35;55.99;98769.31;5089793;28;20482;-75
2022/07/13 01:56:32;;;;;;;2.33;1.00;;;;;;;14.32;55.86;98767.97;5089787;28;20416;-75
2022/07/13 01:59:01;;;;;;;4.60;1.30;;;;;;;14.31;56.51;98773.81;5089889;28;20472;-73
2022/07/13 02:01:27;;;;;;;1.08;0.98;;;;;;;14.32;56.27;98772.69;5087324;28;20451;-73
2022/07/13 02:03:53;;;;;;;4.57;1.20;;;;;;;14.31;56.19;98765.53;5089429;28;20024;-75
2022/07/13 02:06:18;;;;;;;2.65;0.98;;;;;;;14.28;56.88;98767.78;5089686;28;20043;-74
2022/07/13 02:08:44;;;;;;;1.38;1.17;;;;;;;14.26;56.63;98764.53;5088515;28;20392;-75
2022/07/13 02:11:17;;;;;;;1.80;1.10;;;;;;;14.26;56.82;98772.00;5071331;28;20101;-74
2022/07/13 02:13:44;;;;;;;1.73;1.20;;;;;;;14.24;56.55;98763.22;5089399;28;20020;-73
2022/07/13 02:16:10;;;;;;;1.77;1.08;;;;;;;14.23;56.53;98764.34;5089201;28;20111;-75
2022/07/13 02:18:36;;;;;;;2.00;1.00;;;;;;;14.22;56.78;98751.69;5088871;28;20123;-74
2022/07/13 02:21:01;;;;;;;1.77;1.25;;;;;;;14.20;56.88;98765.78;5089781;28;20025;-74
2022/07/13 02:23:26;;;;;;;1.55;1.33;;;;;;;14.16;56.95;98753.75;5089970;28;20035;-73
2022/07/13 02:25:52;;;;;;;2.72;1.20;;;;;;;14.13;57.22;98762.63;5089719;28;20020;-74
2022/07/13 02:28:17;;;;;;;2.42;1.30;;;;;;;14.10;57.22;98758.56;5089474;28;20050;-75
2022/07/13 02:30:43;;;;;;;2.45;1.30;;;;;;;14.09;57.23;98751.44;5089595;28;20024;-74
2022/07/13 02:33:08;;;;;;;1.80;1.30;;;;;;;14.08;56.98;98748.97;5089266;28;20035;-74
2022/07/13 02:35:34;;;;;;;2.53;1.48;;;;;;;14.08;57.16;98751.72;5089290;28;20028;-74
2022/07/13 02:37:59;;;;;;;2.83;1.35;;;;;;;14.07;57.90;98752.84;5089504;28;20013;-75
2022/07/13 02:40:25;;;;;;;4.30;1.40;;;;;;;14.05;57.31;98750.41;5089095;28;20024;-74
2022/07/13 02:42:50;;;;;;;5.07;1.80;;;;;;;14.05;57.54;98757.88;5089310;28;20013;-73
2022/07/13 02:45:16;;;;;;;1.50;1.20;;;;;;;14.04;58.23;98757.06;5089586;28;20028;-74
2022/07/13 02:47:41;;;;;;;2.90;1.40;;;;;;;14.01;57.73;98757.69;5088512;28;20020;-74
2022/07/13 02:50:07;;;;;;;2.38;1.38;;;;;;;13.98;57.62;98756.38;5089741;28;20123;-73
2022/07/13 02:52:32;;;;;;;9.80;2.05;;;;;;;13.99;57.77;98757.19;5089177;28;20471;-73
2022/07/13 02:54:58;;;;;;;4.80;1.40;;;;;;;13.97;57.69;98754.75;5089675;28;20035;-73
2022/07/13 02:57:24;;;;;;;1.98;1.23;;;;;;;13.99;57.83;98751.66;5088376;28;20119;-72
2022/07/13 02:59:50;;;;;;;2.17;1.00;;;;;;;13.99;57.69;98748.91;5087725;28;20511;-74
2022/07/13 03:02:17;;;;;;;2.30;1.20;;;;;;;13.96;57.94;98739.31;5086287;28;20078;-73
2022/07/13 03:04:42;;;;;;;2.78;1.27;;;;;;;13.97;58.56;98748.41;5087819;28;20099;-74
2022/07/13 03:07:08;;;;;;;1.80;1.10;;;;;;;13.96;58.16;98744.84;5087935;28;20127;-74
2022/07/13 03:09:33;;;;;;;1.77;1.10;;;;;;;13.97;58.30;98749.22;5087601;28;20032;-73
2022/07/13 03:11:58;;;;;;;1.65;1.00;;;;;;;13.97;59.16;98746.47;5088681;28;20034;-74
2022/07/13 03:14:24;;;;;;;2.90;1.10;;;;;;;13.97;58.38;98746.47;5089712;28;20035;-73
2022/07/13 03:16:49;;;;;;;1.45;1.13;;;;;;;13.99;58.42;98752.50;5090017;28;20020;-74
2022/07/13 03:19:15;;;;;;;3.60;1.00;;;;;;;14.00;58.60;98750.53;5089049;28;20064;-74
2022/07/13 03:21:40;;;;;;;4.65;1.33;;;;;;;14.01;58.66;98743.91;5089338;28;20107;-74
2022/07/13 03:24:06;;;;;;;2.15;0.98;;;;;;;14.03;58.56;98749.91;5089610;28;20024;-74
2022/07/13 03:26:31;;;;;;;3.22;1.10;;;;;;;14.07;58.89;98755.59;5089791;28;20188;-73
2022/07/13 03:28:56;;;;;;;3.50;1.20;;;;;;;14.07;59.05;98752.84;5092334;28;20032;-74
2022/07/13 03:31:22;;;;;;;2.85;1.00;;;;;;;14.10;59.05;98746.72;5093159;28;20036;-74
2022/07/13 03:33:48;;;;;;;2.65;1.20;;;;;;;14.13;59.04;98748.84;5092997;28;20206;-74
2022/07/13 03:36:13;;;;;;;1.83;1.00;;;;;;;14.16;59.32;98741.91;5092634;28;20061;-74
2022/07/13 03:38:39;;;;;;;2.63;0.90;;;;;;;14.20;59.17;98746.47;5092997;28;20028;-75
2022/07/13 03:41:04;;;;;;;2.00;0.93;;;;;;;14.23;59.31;98745.84;5092837;28;20031;-75
2022/07/13 03:43:30;;;;;;;2.17;0.95;;;;;;;14.26;59.23;98747.97;5093182;28;20162;-75
2022/07/13 03:45:55;;;;;;;1.63;1.00;;;;;;;14.28;59.68;98747.66;5092919;28;20070;-74
2022/07/13 03:48:21;;;;;;;2.08;0.98;;;;;;;14.32;59.43;98742.34;5074696;28;20505;-74
2022/07/13 03:50:47;;;;;;;1.60;0.90;;;;;;;14.34;59.75;98746.41;5092545;28;20024;-75
2022/07/13 03:53:13;;;;;;;1.90;1.02;;;;;;;14.36;59.98;98749.66;5092427;28;20526;-75
2022/07/13 03:55:40;;;;;;;2.13;0.90;;;;;;;14.39;60.23;98756.50;5092615;28;20064;-74
2022/07/13 03:58:05;;;;;;;2.33;1.13;;;;;;;14.41;59.91;98757.81;5074798;28;20504;-74
2022/07/13 04:00:31;;;;;;;2.70;1.38;;;;;;;14.44;59.69;98757.19;5092289;28;20122;-74
2022/07/13 04:02:57;;;;;;;1.73;0.98;;;;;;;14.51;59.47;98761.44;5092139;28;20032;-74
2022/07/13 04:05:24;;;;;;;3.28;1.00;;;;;;;14.54;59.44;98750.59;5092362;28;20067;-74
2022/07/13 04:07:49;;;;;;;2.80;1.10;;;;;;;14.59;60.28;98746.91;5091853;28;20110;-74
2022/07/13 04:10:18;;;;;;;1.73;0.90;;;;;;;14.62;60.12;98751.78;5092022;28;20505;-74
2022/07/13 04:12:44;;;;;;;1.33;0.90;;;;;;;14.66;59.96;98754.72;5091680;28;20468;-74
2022/07/13 04:15:11;;;;;;;1.77;0.98;;;;;;;14.70;60.42;98753.00;5092221;28;20429;-75
2022/07/13 04:17:36;;;;;;;2.67;1.00;;;;;;;14.74;60.36;98752.03;5091996;28;20024;-75
2022/07/13 04:20:02;;;;;;;2.95;1.10;;;;;;;14.79;60.17;98761.31;5091565;28;20051;-75
2022/07/13 04:22:29;;;;;;;2.55;1.10;;;;;;;14.83;60.30;98763.13;5091561;28;20063;-74
2022/07/13 04:24:55;;;;;;;1.90;1.38;;;;;;;14.89;60.50;98764.59;5091989;28;20408;-75
2022/07/13 04:27:20;;;;;;;1.92;1.00;;;;;;;14.96;60.15;98760.56;5092010;28;20039;-75
2022/07/13 04:29:46;;;;;;;3.40;1.00;;;;;;;15.03;60.82;98758.19;5091806;28;20077;-75
2022/07/13 04:32:11;;;;;;;2.28;1.10;;;;;;;15.11;60.83;98753.81;5091799;28;20028;-75
2022/07/13 04:34:37;;;;;;;1.58;1.00;;;;;;;15.19;60.69;98764.09;5091937;28;20396;-76
2022/07/13 04:37:03;;;;;;;1.80;0.98;;;;;;;15.26;61.11;98758.13;5091647;28;20056;-75
2022/07/13 04:39:29;;;;;;;1.67;1.10;;;;;;;15.35;60.84;98767.22;5091603;28;20098;-75
2022/07/13 04:41:54;;;;;;;2.55;1.02;;;;;;;15.42;60.42;98752.94;5091484;28;20111;-75
2022/07/13 04:44:20;;;;;;;3.85;1.88;;;;;;;15.52;60.77;98754.59;5091632;28;20027;-75
2022/07/13 04:46:46;;;;;;;6.30;4.00;;;;;;;15.61;60.94;98763.72;5091578;28;20024;-75
2022/07/13 04:49:12;;;;;;;7.93;4.75;;;;;;;15.70;60.30;98764.53;5091630;28;20404;-75
2022/07/13 04:51:37;;;;;;;2.13;1.48;;;;;;;15.80;61.03;98763.44;5072625;28;20020;-75
2022/07/13 04:54:03;;;;;;;2.13;1.10;;;;;;;15.87;60.77;98755.50;5073190;28;20131;-75
2022/07/13 04:56:28;;;;;;;3.30;0.90;;;;;;;15.96;60.69;98755.50;5091390;28;20055;-74
2022/07/13 04:58:54;;;;;;;1.35;1.00;;;;;;;16.05;60.42;98763.78;5091233;28;20035;-75
2022/07/13 05:01:19;;;;;;;2.63;1.10;;;;;;;16.15;60.33;98770.94;5091049;28;20030;-75
2022/07/13 05:03:45;;;;;;;2.00;1.13;;;;;;;16.23;60.14;98764.59;5090934;28;20032;-75
2022/07/13 05:06:10;;;;;;;3.55;1.35;;;;;;;16.31;60.04;98774.84;5073090;28;20028;-74
2022/07/13 05:08:35;;;;;;;6.30;5.03;;;;;;;16.41;59.86;98767.34;5090628;28;20060;-73
2022/07/13 05:11:01;;;;;;;6.45;4.45;;;;;;;16.47;59.58;98768.81;5072398;28;20052;-73
2022/07/13 05:13:27;;;;;;;2.92;1.40;;;;;;;16.54;59.63;98771.88;5090831;28;20039;-73
2022/07/13 05:15:52;;;;;;;1.80;0.90;;;;;;;16.62;59.71;98775.78;5072651;28;20024;-73
2022/07/13 05:18:18;;;;;;;3.85;1.00;;;;;;;16.68;59.52;98766.16;5090633;28;20592;-73
2022/07/13 05:20:44;;;;;;;1.50;1.00;;;;;;;16.76;59.20;98764.50;5072742;28;20032;-74
2022/07/13 05:23:09;;;;;;;1.70;0.95;;;;;;;16.83;59.56;98745.44;5090098;28;20107;-75
2022/07/13 05:25:35;;;;;;;3.47;1.10;;;;;;;16.91;59.33;98747.34;5090638;28;20081;-74
2022/07/13 05:28:00;;;;;;;2.40;1.20;;;;;;;16.99;58.92;98747.66;5072624;28;20062;-73
2022/07/13 05:30:26;;;;;;;1.67;1.00;;;;;;;17.07;58.74;98749.59;5090524;28;20028;-73
2022/07/13 05:32:51;;;;;;;2.22;1.02;;;;;;;17.17;58.55;98756.72;5090306;28;20059;-74
2022/07/13 05:35:17;;;;;;;2.58;1.10;;;;;;;17.25;58.65;98755.88;5091033;28;20028;-75
2022/07/13 05:37:42;;;;;;;1.38;1.00;;;;;;;17.34;58.37;98750.28;5090721;28;20047;-74
2022/07/13 05:40:08;;;;;;;2.85;1.00;;;;;;;17.40;58.19;98752.53;5090425;28;20606;-74
2022/07/13 05:42:33;;;;;;;1.95;0.70;;;;;;;17.49;58.59;98758.03;5090405;28;20028;-74
2022/07/13 05:44:59;;;;;;;2.40;1.00;;;;;;;17.58;57.90;98755.19;5090917;28;20523;-74
2022/07/13 05:47:24;;;;;;;2.20;1.08;;;;;;;17.63;58.03;98748.66;5090925;28;20115;-75
2022/07/13 05:49:49;;;;;;;2.28;1.00;;;;;;;17.71;57.94;98742.25;5090266;28;20097;-74
2022/07/13 05:52:15;;;;;;;2.42;1.20;;;;;;;17.82;57.52;98762.06;5090294;28;20438;-75
2022/07/13 05:54:40;;;;;;;1.63;0.95;;;;;;;17.85;57.56;98773.28;5072095;28;20031;-74
2022/07/13 05:57:06;;;;;;;2.85;0.98;;;;;;;17.93;57.28;98770.78;5090630;28;20477;-74
2022/07/13 05:59:33;;;;;;;2.53;1.05;;;;;;;17.98;57.26;98776.94;5090121;28;20039;-75
2022/07/13 06:02:01;;;;;;;1.88;0.80;;;;;;;18.05;57.18;98768.13;5089615;28;20476;-73
2022/07/13 06:04:26;;;;;;;2.47;0.98;;;;;;;18.12;56.85;98768.41;5090274;28;20049;-73
2022/07/13 06:06:52;;;;;;;1.75;0.90;;;;;;;18.17;57.18;98769.31;5090081;28;20024;-74
2022/07/13 06:09:17;;;;;;;1.35;0.90;;;;;;;18.23;57.08;98767.97;5090390;28;20085;-74
2022/07/13 06:11:43;;;;;;;1.77;1.13;;;;;;;18.28;57.03;98767.75;5071599;28;20116;-74
2022/07/13 06:14:09;;;;;;;1.38;0.82;;;;;;;18.37;57.29;98767.69;5090086;28;20024;-75
2022/07/13 06:16:35;;;;;;;2.63;1.00;;;;;;;18.42;57.36;98770.25;5089951;28;20027;-74
2022/07/13 06:19:00;;;;;;;1.88;0.90;;;;;;;18.48;57.17;98771.66;5071821;28;20063;-74
2022/07/13 06:21:26;;;;;;;1.60;1.10;;;;;;;18.57;57.03;98769.63;5089542;28;20028;-74
2022/07/13 06:23:51;;;;;;;2.20;1.08;;;;;;;18.65;56.92;98770.66;5071972;28;20150;-75
2022/07/13 06:26:17;;;;;;;2.95;1.20;;;;;;;18.69;57.05;98768.03;5089850;28;20388;-74
2022/07/13 06:28:42;;;;;;;2.22;0.90;;;;;;;18.80;56.90;98773.97;5089928;28;20515;-74
2022/07/13 06:31:07;;;;;;;4.22;0.95;;;;;;;18.88;56.81;98770.28;5089567;28;20021;-75
2022/07/13 06:33:33;;;;;;;2.03;1.17;;;;;;;18.96;56.65;98768.56;5089647;28;20456;-74
2022/07/13 06:35:58;;;;;;;2.20;0.90;;;;;;;19.01;56.71;98760.03;5089328;28;20032;-74
2022/07/13 06:38:24;;;;;;;2.83;0.82;;;;;;;19.12;56.70;98761.19;5089711;28;20035;-75
2022/07/13 06:40:49;;;;;;;1.20;0.82;;;;;;;19.21;56.39;98774.16;5089647;28;20031;-74
2022/07/13 06:43:15;;;;;;;2.22;1.00;;;;;;;19.27;56.21;98770.00;5066896;28;20040;-74
2022/07/13 06:45:41;;;;;;;1.13;0.73;;;;;;;19.34;56.21;98765.50;5083970;28;20468;-73
2022/07/13 06:48:06;;;;;;;1.35;0.90;;;;;;;19.41;56.15;98764.09;5088972;28;20031;-75
2022/07/13 06:50:32;;;;;;;2.17;1.00;;;;;;;19.50;56.18;98762.00;5088240;28;20468;-75
2022/07/13 06:52:57;;;;;;;0.90;0.77;;;;;;;19.61;56.04;98757.59;5084819;28;20031;-74
2022/07/13 06:55:23;;;;;;;1.15;0.73;;;;;;;19.70;55.20;98762.22;5088714;28;20024;-75
2022/07/13 06:57:49;;;;;;;2.55;0.90;;;;;;;19.75;55.17;98760.00;5069021;28;20798;-76
2022/07/13 07:00:14;;;;;;;2.00;0.80;;;;;;;19.82;55.07;98764.97;5088010;28;20036;-75
2022/07/13 07:02:40;;;;;;;2.00;0.90;;;;;;;19.90;54.27;98764.06;5089852;28;20024;-76
2022/07/13 07:05:09;;;;;;;2.08;0.85;;;;;;;19.99;53.69;98771.47;5092280;28;20060;-74
2022/07/13 07:07:35;;;;;;;1.55;0.77;;;;;;;20.05;53.50;98764.50;5087718;28;20024;-75
2022/07/13 07:10:01;;;;;;;3.22;1.00;;;;;;;20.17;53.71;98760.84;5073979;28;20027;-75
2022/07/13 07:12:26;;;;;;;1.83;0.85;;;;;;;20.23;53.28;98757.44;5073223;28;20028;-75
2022/07/13 07:14:51;;;;;;;1.60;0.82;;;;;;;20.28;53.20;98761.97;5092154;28;20024;-74
2022/07/13 07:17:17;;;;;;;0.90;0.65;;;;;;;20.33;52.80;98761.72;5090354;28;20020;-76
2022/07/13 07:19:44;;;;;;;0.60;0.60;;;;;;;20.44;52.84;98764.81;5089652;28;20048;-76
2022/07/13 07:22:10;;;;;;;2.65;0.60;;;;;;;20.52;52.65;98763.84;5091519;28;20036;-75
2022/07/13 07:24:35;;;;;;;1.15;0.90;;;;;;;20.61;51.51;98765.63;5092070;28;20021;-76
2022/07/13 07:27:02;;;;;;;1.88;0.80;;;;;;;20.67;51.20;98759.47;5091687;28;20459;-76
2022/07/13 07:29:28;;;;;;;1.13;0.70;;;;;;;20.72;51.52;98760.38;5090968;28;20038;-74
2022/07/13 07:31:53;;;;;;;1.20;0.70;;;;;;;20.78;50.52;98762.56;5088370;28;20024;-76
2022/07/13 07:34:18;;;;;;;1.52;0.60;;;;;;;20.86;49.45;98765.56;5091854;28;20103;-76
2022/07/13 07:36:44;;;;;;;1.63;0.60;;;;;;;20.87;49.73;98765.19;5091788;28;20392;-76
2022/07/13 07:39:10;;;;;;;0.93;0.50;;;;;;;20.92;49.63;98759.34;5090635;28;20495;-76
2022/07/13 07:41:36;;;;;;;0.82;0.65;;;;;;;20.99;49.77;98753.13;5072241;28;20020;-75
2022/07/13 07:44:01;;;;;;;2.88;0.80;;;;;;;21.08;50.04;98761.34;5086443;28;20030;-74
2022/07/13 07:46:27;;;;;;;1.90;0.70;;;;;;;21.17;49.46;98755.56;5084849;28;20028;-78
2022/07/13 07:48:53;;;;;;;1.30;0.60;;;;;;;21.26;49.55;98750.63;5091260;28;20054;-76
2022/07/13 07:51:18;;;;;;;0.75;0.55;;;;;;;21.31;49.14;98750.34;5089907;28;20415;-74
2022/07/13 07:53:44;;;;;;;1.88;0.70;;;;;;;21.35;49.37;98759.63;5090011;28;20028;-73
2022/07/13 07:56:09;;;;;;;2.17;0.60;;;;;;;21.39;48.59;98766.09;5091875;28;20059;-75
2022/07/13 07:58:35;;;;;;;1.60;0.60;;;;;;;21.42;47.74;98768.13;5089950;28;20032;-74
2022/07/13 08:01:01;;;;;;;1.33;0.50;;;;;;;21.43;48.23;98771.75;5089965;28;20554;-74
2022/07/13 08:03:26;;;;;;;1.05;0.70;;;;;;;21.50;46.94;98757.97;5090774;28;20032;-74
2022/07/13 08:05:52;;;;;;;1.35;0.60;;;;;;;21.51;46.92;98769.94;5090711;28;20438;-73
2022/07/13 08:08:18;;;;;;;2.08;0.60;;;;;;;21.55;47.07;98765.25;5066500;28;20031;-75
2022/07/13 08:10:44;;;;;;;1.60;1.00;;;;;;;21.56;47.76;98764.09;5090154;28;20032;-72
2022/07/13 08:13:09;;;;;;;1.15;0.68;;;;;;;21.63;47.52;98763.47;5089129;28;20115;-74
2022/07/13 08:15:35;;;;;;;1.77;0.60;;;;;;;21.67;46.48;98767.97;5070375;28;20032;-76
2022/07/13 08:18:01;;;;;;;2.53;0.80;;;;;;;21.70;46.87;98758.88;5071111;28;20032;-71
2022/07/13 08:20:26;;;;;;;1.90;0.60;;;;;;;21.74;46.31;98763.72;5088879;28;20048;-75
2022/07/13 08:22:52;;;;;;;3.15;0.80;;;;;;;21.74;45.88;98760.94;5087856;28;20036;-75
2022/07/13 08:25:17;;;;;;;1.77;0.60;;;;;;;21.75;45.88;98752.19;5088860;28;20044;-77
2022/07/13 08:27:43;;;;;;;0.98;0.60;;;;;;;21.81;46.46;98749.91;5089989;28;20031;-74
2022/07/13 08:30:11;;;;;;;1.08;0.60;;;;;;;21.86;46.11;98753.25;5089576;28;20028;-74
2022/07/13 08:32:37;;;;;;;1.58;0.50;;;;;;;21.91;45.66;98759.72;5088054;28;20024;-74
2022/07/13 08:40:30;;;;;;;1.42;0.77;;;;;;;22.07;45.76;98768.81;5087810;28;20043;-72
2022/07/13 08:42:57;;;;;;;1.30;0.60;;;;;;;22.14;44.94;98749.44;5088766;28;20740;-73
2022/07/13 08:45:24;;;;;;;3.30;0.65;;;;;;;22.21;44.59;98753.56;5089732;28;20038;-74
2022/07/13 08:47:49;;;;;;;1.63;0.60;;;;;;;22.26;44.78;98754.06;5088505;28;20043;-72
2022/07/13 08:50:16;;;;;;;0.95;0.60;;;;;;;22.30;44.08;98749.34;5091041;28;20020;-74
2022/07/13 08:52:42;;;;;;;1.00;0.50;;;;;;;22.36;43.56;98752.69;5089248;28;20070;-74
2022/07/13 08:55:08;;;;;;;1.58;0.60;;;;;;;22.38;43.44;98753.13;5088517;28;20024;-80
2022/07/13 08:57:36;;;;;;;1.92;0.60;;;;;;;22.44;43.06;98751.66;5088566;28;20031;-78
2022/07/13 09:00:09;;;;;;;1.83;0.70;;;;;;;22.50;42.91;98752.19;5088723;28;20058;-75
2022/07/13 09:02:35;;;;;;;4.15;2.55;;;;;;;22.58;42.99;98753.13;5086977;28;20158;-77
2022/07/13 09:05:05;;;;;;;1.23;0.80;;;;;;;22.64;42.79;98751.63;5087039;28;20035;-73
2022/07/13 09:07:33;;;;;;;1.75;0.80;;;;;;;22.71;42.54;98753.75;5086735;28;20032;-76
2022/07/13 09:09:59;;;;;;;1.00;0.90;;;;;;;22.78;42.32;98741.91;5088925;28;20495;-76
2022/07/13 09:12:26;;;;;;;4.75;1.95;;;;;;;22.84;43.15;98744.00;5088437;28;20517;-77
2022/07/13 09:14:53;;;;;;;4.47;1.35;;;;;;;22.96;43.39;98745.03;5089380;28;20488;-76
2022/07/13 09:17:40;;;;;;;0.85;0.65;;;;;;;23.08;43.59;98741.22;5088675;28;20032;-76
2022/07/13 09:20:14;;;;;;;2.40;0.80;;;;;;;23.20;43.43;98744.63;5088255;28;20079;-75
2022/07/13 09:22:47;;;;;;;1.95;0.68;;;;;;;23.25;42.99;98742.72;5089046;28;20031;-75
2022/07/13 09:25:26;;;;;;;1.13;0.70;;;;;;;23.32;42.78;98756.84;5088297;28;20024;-75
2022/07/13 09:27:53;;;;;;;2.47;0.60;;;;;;;23.33;42.22;98742.47;5089589;28;20069;-75
2022/07/13 09:30:26;;;;;;;1.80;0.80;;;;;;;23.33;42.50;98747.25;5089414;28;20424;-75
2022/07/13 09:32:53;;;;;;;1.02;0.90;;;;;;;23.36;43.13;98749.31;5088989;28;20480;-75
2022/07/13 09:35:18;;;;;;;2.00;1.10;;;;;;;23.47;41.48;98757.88;5087863;28;20259;-74
2022/07/13 09:37:44;;;;;;;4.15;2.08;;;;;;;23.53;41.76;98744.34;5085814;28;20081;-75
2022/07/13 09:40:11;;;;;;;3.85;1.08;;;;;;;23.60;41.71;98741.66;5089012;28;20493;-77
2022/07/13 09:42:41;;;;;;;1.60;1.00;;;;;;;23.63;41.59;98747.31;5088993;28;20032;-74
2022/07/13 09:47:55;;;;;;;3.58;0.80;;;;;;;23.71;41.87;98745.44;5084832;28;20096;-74
2022/07/13 09:50:36;;;;;;;1.88;0.68;;;;;;;23.74;41.92;98741.06;5088002;28;20472;-77
2022/07/13 09:53:03;;;;;;;1.20;0.68;;;;;;;23.83;41.91;98743.59;5087266;28;20034;-75
2022/07/13 09:55:33;;;;;;;1.10;0.80;;;;;;;23.89;40.81;98758.84;5085732;28;20052;-77
2022/07/13 09:58:05;;;;;;;2.83;0.90;;;;;;;23.94;40.08;98750.13;5088520;28;20027;-75
2022/07/13 10:00:32;;;;;;;1.50;0.90;;;;;;;23.96;40.84;98747.75;5067921;28;20089;-72
2022/07/13 10:02:58;;;;;;;1.30;0.80;;;;;;;24.05;40.87;98733.50;5083975;28;20033;-74
2022/07/13 10:05:24;;;;;;;2.90;0.90;;;;;;;24.20;40.15;98751.31;5086475;28;20024;-73
2022/07/13 10:07:50;;;;;;;2.55;1.20;;;;;;;24.32;39.63;98761.47;5083849;28;20111;-74
2022/07/13 10:10:16;;;;;;;1.77;0.90;;;;;;;24.44;38.25;98746.38;5086125;28;20032;-73
2022/07/13 10:12:43;;;;;;;2.05;1.00;;;;;;;24.57;38.69;98756.16;5087464;28;20089;-76
2022/07/13 10:15:11;;;;;;;1.02;0.73;;;;;;;24.79;39.27;98753.59;5083222;28;20032;-76
2022/07/13 10:17:38;;;;;;;2.88;1.13;;;;;;;24.99;38.62;98751.38;5086317;28;20036;-77
2022/07/13 10:20:11;;;;;;;1.92;1.00;;;;;;;25.19;38.70;98743.53;5087907;28;20074;-74
2022/07/13 10:22:40;;;;;;;1.88;0.75;;;;;;;25.34;38.09;98754.88;5069202;28;20112;-75
2022/07/13 10:25:06;;;;;;;2.20;1.05;;;;;;;25.41;36.88;98738.88;5086177;28;20431;-78
2022/07/13 10:27:35;;;;;;;2.60;0.85;;;;;;;25.42;36.08;98734.88;5085743;28;20111;-75
2022/07/13 10:30:10;;;;;;;1.80;1.20;;;;;;;25.35;36.45;98762.09;5086065;28;20340;-78
2022/07/13 10:32:40;;;;;;;2.15;1.10;;;;;;;25.29;36.94;98756.03;5085879;28;20028;-76
2022/07/13 10:35:12;;;;;;;3.35;0.70;;;;;;;25.26;36.98;98759.63;5089499;28;20477;-73
2022/07/13 10:37:56;;;;;;;2.50;1.20;;;;;;;25.23;36.15;98766.03;5089719;28;20028;-76
2022/07/13 10:40:22;;;;;;;1.80;1.10;;;;;;;25.16;35.75;98769.56;5072413;28;20365;-76
2022/07/13 10:42:57;;;;;;;2.25;0.80;;;;;;;25.08;35.42;98774.31;5091796;28;20036;-76
2022/07/13 10:45:31;;;;;;;2.80;1.08;;;;;;;25.02;35.95;98764.63;5092886;28;20488;-76
2022/07/13 10:47:57;;;;;;;4.45;0.95;;;;;;;25.02;35.88;98761.03;5091948;28;20115;-77
2022/07/13 10:50:23;;;;;;;0.63;0.40;;;;;;;25.06;36.74;98770.28;5073388;28;20237;-76
2022/07/13 10:52:49;;;;;;;1.55;0.75;;;;;;;25.05;36.12;98758.25;5092883;28;20422;-77
2022/07/13 10:55:20;;;;;;;1.95;0.65;;;;;;;25.06;36.73;98759.84;5092728;28;20433;-76
2022/07/13 10:57:46;;;;;;;1.23;0.70;;;;;;;25.20;36.81;98759.16;5091856;28;20028;-74
2022/07/13 11:00:22;;;;;;;1.10;0.60;;;;;;;25.36;36.16;98752.50;5091817;28;20020;-77
2022/07/13 11:02:51;;;;;;;0.57;0.43;;;;;;;25.41;33.95;98761.34;5093111;28;20031;-76
2022/07/13 11:05:26;;;;;;;1.40;0.50;;;;;;;25.39;33.89;98755.31;5090571;28;20024;-77
2022/07/13 11:07:53;;;;;;;1.35;0.50;;;;;;;25.40;34.24;98756.94;5074650;28;20024;-75
2022/07/13 11:10:40;;;;;;;3.00;0.70;;;;;;;25.41;34.15;98754.94;5093410;28;20032;-76
2022/07/13 11:13:12;;;;;;;0.40;0.38;;;;;;;25.47;34.54;98746.97;5089745;28;20035;-75
2022/07/13 11:15:56;;;;;;;1.73;0.70;;;;;;;25.52;34.31;98755.84;5082513;28;20043;-78
2022/07/13 11:18:22;;;;;;;2.25;0.90;;;;;;;25.55;34.21;98743.03;5089133;28;20036;-76
2022/07/13 11:21:14;;;;;;;0.90;0.50;;;;;;;25.60;34.50;98748.28;5091234;28;20028;-74
2022/07/13 11:26:36;;;;;;;0.70;0.45;;;;;;;25.77;34.44;98743.97;5091979;28;20434;-75
2022/07/13 11:29:15;;;;;;;1.13;0.80;;;;;;;25.85;34.56;98744.81;5091398;28;20036;-73
2022/07/13 11:31:40;;;;;;;;;;;;;;;26.05;34.35;98728.44;5091133;28;20044;-74
2022/07/13 11:34:06;;;;;;;0.40;0.40;;;;;;;26.29;33.88;98738.22;5071674;28;19915;-75
2022/07/13 11:36:32;;;;;;;2.15;0.70;;;;;;;26.60;34.45;98735.88;5090840;28;20198;-73
2022/07/13 11:38:58;;;;;;;3.05;0.68;;;;;;;26.88;34.18;98720.31;5091829;28;20127;-75
2022/07/13 11:41:23;;;;;;;1.25;0.50;;;;;;;26.96;33.86;98717.47;5091056;28;20469;-75
2022/07/13 11:43:55;;;;;;;3.55;0.80;;;;;;;27.09;33.72;98724.31;5091693;28;20476;-74